createdAt,value
2018-12-30T08:05:45.877Z,3.10
2018-12-30T08:08:38.941Z,2.53
2018-12-30T08:11:28.986Z,2.30
2018-12-30T08:14:26.784Z,2.23
2018-12-30T08:17:17.021Z,2.83
2018-12-30T08:20:06.779Z,2.27
2018-12-30T08:23:02.451Z,2.60
2018-12-30T08:25:55.919Z,3.67
2018-12-30T08:28:45.412Z,2.83
2018-12-30T08:31:35.997Z,3.40
2018-12-30T08:34:25.179Z,2.83
2018-12-30T08:40:20.725Z,2.40
2018-12-30T08:46:17.186Z,2.10
2018-12-30T08:49:06.119Z,2.27
2018-12-30T08:52:00.037Z,2.03
2018-12-30T08:54:50.437Z,2.77
2018-12-30T08:57:39.036Z,2.20
2018-12-30T09:00:27.518Z,2.00
2018-12-30T09:03:17.717Z,2.47
2018-12-30T09:06:05.824Z,2.87
2018-12-30T09:08:57.980Z,1.97
2018-12-30T09:11:51.253Z,3.00
2018-12-30T09:14:41.104Z,2.10
2018-12-30T09:17:29.800Z,2.17
2018-12-30T09:20:21.870Z,1.93
2018-12-30T09:23:10.703Z,1.90
2018-12-30T09:25:59.644Z,3.33
2018-12-30T09:29:00.893Z,3.43
2018-12-30T09:31:55.627Z,2.63
2018-12-30T09:34:45.845Z,2.50
2018-12-30T09:37:34.554Z,1.90
2018-12-30T09:40:31.494Z,2.00
2018-12-30T09:43:20.751Z,1.40
2018-12-30T09:46:11.572Z,1.60
2018-12-30T09:49:02.361Z,2.63
2018-12-30T09:51:53.396Z,2.55
2018-12-30T09:54:59.490Z,1.87
2018-12-30T09:57:48.268Z,2.40
2018-12-30T10:00:41.757Z,2.20
2018-12-30T10:03:32.508Z,1.90
2018-12-30T10:06:22.444Z,2.03
2018-12-30T10:09:12.548Z,1.83
2018-12-30T10:12:10.250Z,2.10
2018-12-30T10:15:02.067Z,1.93
2018-12-30T10:17:47.053Z,1.93
2018-12-30T10:20:34.388Z,1.87
2018-12-30T10:23:25.240Z,1.43
2018-12-30T10:26:21.310Z,1.83
2018-12-30T10:29:17.859Z,2.90
2018-12-30T10:32:05.192Z,2.23
2018-12-30T10:34:55.245Z,2.28
2018-12-30T10:37:44.047Z,2.33
2018-12-30T10:40:36.010Z,2.53
2018-12-30T10:43:24.216Z,3.23
2018-12-30T10:46:16.405Z,3.53
2018-12-30T10:49:07.192Z,3.45
2018-12-30T10:51:55.704Z,3.53
2018-12-30T10:54:45.150Z,3.53
2018-12-30T10:57:38.065Z,2.70
2018-12-30T11:00:26.975Z,2.30
2018-12-30T11:03:15.650Z,2.37
2018-12-30T11:09:16.802Z,2.30
2018-12-30T11:12:04.663Z,2.20
2018-12-30T11:14:52.801Z,1.50
2018-12-30T11:17:40.791Z,2.17
2018-12-30T11:20:30.597Z,1.60
2018-12-30T11:23:18.821Z,2.10
2018-12-30T11:26:06.683Z,2.78
2018-12-30T11:28:54.698Z,2.00
2018-12-30T11:31:46.019Z,1.53
2018-12-30T11:34:33.522Z,1.40
2018-12-30T11:37:29.563Z,1.17
2018-12-30T11:40:18.918Z,1.03
2018-12-30T11:46:24.287Z,1.23
2018-12-30T11:49:15.767Z,1.03
2018-12-30T11:52:03.227Z,1.20
2018-12-30T11:54:55.333Z,1.30
2018-12-30T11:57:44.584Z,1.20
2018-12-30T12:00:49.209Z,0.87
2018-12-30T12:03:37.868Z,0.83
2018-12-30T12:06:32.924Z,0.80
2018-12-30T12:09:22.335Z,1.20
2018-12-30T12:15:19.619Z,1.17
2018-12-30T12:18:08.866Z,1.20
2018-12-30T12:21:02.072Z,1.23
2018-12-30T12:23:51.430Z,1.80
2018-12-30T12:26:42.537Z,1.67
2018-12-30T12:29:36.227Z,1.30
2018-12-30T12:32:25.288Z,1.47
2018-12-30T12:35:15.293Z,1.20
2018-12-30T12:38:04.357Z,1.50
2018-12-30T12:40:55.005Z,1.62
2018-12-30T12:46:50.899Z,1.13
2018-12-30T12:49:39.811Z,1.67
2018-12-30T12:52:29.464Z,1.57
2018-12-30T12:55:18.706Z,1.43
2018-12-30T12:58:09.023Z,1.70
2018-12-30T13:01:07.258Z,1.70
2018-12-30T13:03:58.433Z,1.77
2018-12-30T13:06:47.576Z,2.80
2018-12-30T13:09:37.797Z,1.47
2018-12-30T13:12:36.352Z,1.77
2018-12-30T13:15:33.744Z,1.73
2018-12-30T13:18:26.692Z,1.93
2018-12-30T13:21:17.766Z,1.77
2018-12-30T13:24:05.301Z,1.70
2018-12-30T13:26:57.595Z,1.53
2018-12-30T13:32:57.592Z,1.60
2018-12-30T13:35:45.863Z,1.70
2018-12-30T13:41:45.713Z,1.70
2018-12-30T13:44:35.591Z,1.90
2018-12-30T13:47:24.493Z,1.63
2018-12-30T13:50:13.457Z,1.47
2018-12-30T13:53:05.940Z,1.80
2018-12-30T13:55:55.611Z,1.63
2018-12-30T13:58:43.754Z,1.57
2018-12-30T14:01:39.728Z,2.00
2018-12-30T14:07:33.851Z,2.13
2018-12-30T14:10:25.302Z,2.10
2018-12-30T14:13:19.658Z,2.07
2018-12-30T14:16:08.958Z,1.77
2018-12-30T14:18:58.163Z,1.70
2018-12-30T14:21:57.573Z,1.50
2018-12-30T14:24:55.174Z,2.40
2018-12-30T14:27:37.681Z,1.57
2018-12-30T14:30:26.888Z,1.90
2018-12-30T14:33:15.203Z,1.90
2018-12-30T14:36:04.259Z,1.93
2018-12-30T14:38:51.970Z,2.00
2018-12-30T14:41:42.854Z,2.50
2018-12-30T14:44:33.438Z,2.93
2018-12-30T14:47:23.057Z,3.10
2018-12-30T14:50:12.258Z,2.33
2018-12-30T14:53:06.680Z,2.00
2018-12-30T14:56:01.705Z,2.03
2018-12-30T14:58:55.820Z,1.60
2018-12-30T15:01:47.588Z,1.73
2018-12-30T15:04:38.749Z,2.03
2018-12-30T15:07:33.020Z,2.13
2018-12-30T15:10:22.275Z,1.50
2018-12-30T15:13:12.946Z,1.97
2018-12-30T15:16:05.949Z,2.20
2018-12-30T15:18:56.908Z,1.80
2018-12-30T15:21:45.263Z,1.97
2018-12-30T15:24:42.229Z,2.10
2018-12-30T15:27:30.072Z,2.50
2018-12-30T15:33:24.281Z,2.57
2018-12-30T15:36:13.687Z,2.30
2018-12-30T15:39:00.914Z,2.40
2018-12-30T15:41:48.248Z,2.03
2018-12-30T15:44:35.463Z,2.53
2018-12-30T15:47:22.581Z,2.80
2018-12-30T15:50:12.394Z,2.83
2018-12-30T15:53:01.596Z,1.70
2018-12-30T15:55:48.783Z,1.97
2018-12-30T15:58:36.936Z,2.00
2018-12-30T16:01:24.983Z,2.20
2018-12-30T16:04:15.052Z,2.43
2018-12-30T16:07:03.036Z,1.97
2018-12-30T16:09:50.531Z,1.90
2018-12-30T16:12:38.058Z,2.10
2018-12-30T16:15:25.861Z,2.47
2018-12-30T16:18:13.546Z,2.85
2018-12-30T16:21:04.800Z,1.87
2018-12-30T16:23:51.850Z,1.97
2018-12-30T16:26:40.127Z,2.30
2018-12-30T16:29:28.711Z,2.40
2018-12-30T16:32:18.134Z,2.47
2018-12-30T16:35:05.460Z,1.93
2018-12-30T16:37:53.517Z,2.30
2018-12-30T16:40:40.955Z,2.25
2018-12-30T16:43:28.492Z,1.93
2018-12-30T16:46:18.174Z,1.90
2018-12-30T16:49:05.438Z,1.97
2018-12-30T16:51:52.444Z,2.10
2018-12-30T16:54:39.515Z,2.30
2018-12-30T16:57:28.767Z,2.80
2018-12-30T17:00:19.780Z,2.70
2018-12-30T17:03:07.230Z,2.10
2018-12-30T17:05:54.307Z,2.20
2018-12-30T17:08:41.941Z,2.47
2018-12-30T17:11:30.172Z,2.33
2018-12-30T17:14:18.655Z,2.17
2018-12-30T17:17:06.518Z,2.10
2018-12-30T17:19:53.466Z,2.20
2018-12-30T17:22:41.191Z,1.50
2018-12-30T17:25:29.150Z,2.72
2018-12-30T17:28:17.851Z,2.57
2018-12-30T17:31:07.942Z,1.97
2018-12-30T17:33:54.926Z,2.57
2018-12-30T17:36:42.131Z,2.70
2018-12-30T17:39:51.693Z,2.10
2018-12-30T17:42:34.984Z,1.83
2018-12-30T17:45:22.109Z,2.20
2018-12-30T17:48:09.878Z,2.20
2018-12-30T17:50:58.150Z,2.60
2018-12-30T17:53:54.455Z,2.87
2018-12-30T17:56:41.657Z,2.40
2018-12-30T17:59:28.708Z,2.57
2018-12-30T18:02:16.851Z,2.97
2018-12-30T18:05:04.492Z,2.60
2018-12-30T18:07:54.331Z,2.70
2018-12-30T18:10:48.269Z,3.10
2018-12-30T18:13:33.090Z,3.07
2018-12-30T18:16:21.194Z,2.30
2018-12-30T18:19:10.001Z,2.60
2018-12-30T18:22:00.529Z,2.90
2018-12-30T18:24:56.767Z,2.20
2018-12-30T18:27:45.514Z,2.70
2018-12-30T18:30:37.569Z,3.23
2018-12-30T18:33:24.563Z,3.67
2018-12-30T18:36:15.823Z,2.67
2018-12-30T18:39:16.620Z,2.47
2018-12-30T18:42:03.857Z,2.63
2018-12-30T18:44:51.064Z,3.47
2018-12-30T18:47:38.754Z,3.50
2018-12-30T18:50:26.050Z,3.65
2018-12-30T18:53:13.900Z,3.13
2018-12-30T18:56:06.694Z,3.17
2018-12-30T18:58:54.642Z,3.57
2018-12-30T19:01:42.420Z,3.60
2018-12-30T19:04:29.973Z,3.70
2018-12-30T19:07:21.072Z,3.20
2018-12-30T19:10:08.064Z,3.70
2018-12-30T19:12:55.634Z,4.23
2018-12-30T19:15:43.057Z,3.83
2018-12-30T19:18:30.206Z,3.63
2018-12-30T19:21:18.951Z,3.67
2018-12-30T19:24:07.902Z,3.83
2018-12-30T19:26:58.894Z,4.07
2018-12-30T19:29:46.478Z,3.67
2018-12-30T19:32:35.519Z,3.97
2018-12-30T19:35:24.871Z,3.50
2018-12-30T19:38:13.592Z,3.70
2018-12-30T19:41:03.709Z,4.30
2018-12-30T19:43:52.117Z,4.27
2018-12-30T19:46:45.054Z,5.47
2018-12-30T19:49:36.598Z,5.10
2018-12-30T19:52:28.113Z,4.50
2018-12-30T19:58:34.781Z,3.73
2018-12-30T20:01:24.965Z,3.50
2018-12-30T20:04:21.802Z,4.10
2018-12-30T20:07:09.291Z,3.70
2018-12-30T20:10:10.195Z,3.23
2018-12-30T20:12:59.533Z,3.90
2018-12-30T20:15:48.318Z,3.70
2018-12-30T20:21:48.690Z,4.43
2018-12-30T20:24:40.435Z,4.00
2018-12-30T20:27:30.374Z,4.60
2018-12-30T20:30:20.757Z,4.27
2018-12-30T20:33:08.957Z,5.18
2018-12-30T20:35:56.668Z,3.80
2018-12-30T20:38:49.845Z,3.80
2018-12-30T20:41:43.462Z,3.53
2018-12-30T20:44:32.371Z,3.20
2018-12-30T20:47:23.341Z,3.40
2018-12-30T20:53:21.474Z,3.70
2018-12-30T20:56:09.047Z,4.53
2018-12-30T20:58:58.747Z,3.17
2018-12-30T21:01:46.360Z,2.93
2018-12-30T21:04:35.440Z,4.03
2018-12-30T21:07:23.236Z,2.77
2018-12-30T21:10:11.443Z,2.40
2018-12-30T21:13:04.735Z,1.87
2018-12-30T21:15:56.751Z,1.53
2018-12-30T21:18:44.460Z,1.77
2018-12-30T21:21:35.752Z,2.50
2018-12-30T21:24:30.079Z,2.50
2018-12-30T21:27:22.544Z,2.30
2018-12-30T21:36:32.521Z,1.97
2018-12-30T21:39:25.646Z,2.40
2018-12-30T21:42:15.399Z,2.80
2018-12-30T21:45:13.874Z,2.63
2018-12-30T21:48:01.544Z,3.17
2018-12-30T21:53:58.688Z,3.30
2018-12-30T21:56:54.803Z,4.13
2018-12-30T21:59:42.326Z,4.30
2018-12-30T22:02:41.150Z,4.63
2018-12-30T22:05:32.352Z,4.23
2018-12-30T22:08:19.942Z,4.63
2018-12-30T22:11:07.792Z,5.07
2018-12-30T22:13:57.149Z,4.70
2018-12-30T22:19:57.632Z,4.80
2018-12-30T22:22:46.735Z,5.17
2018-12-30T22:25:36.635Z,5.03
2018-12-30T22:28:24.562Z,5.10
2018-12-30T22:31:14.234Z,6.57
2018-12-30T22:34:18.763Z,4.97
2018-12-30T22:37:06.957Z,4.77
2018-12-30T22:39:56.637Z,4.50
2018-12-30T22:42:44.046Z,4.70
2018-12-30T22:45:32.132Z,6.00
2018-12-30T22:48:19.872Z,4.70
2018-12-30T22:51:08.687Z,4.53
2018-12-30T22:53:59.131Z,4.30
2018-12-30T22:56:47.786Z,4.93
2018-12-30T22:59:36.470Z,5.65
2018-12-30T23:02:26.014Z,5.67
2018-12-30T23:05:13.184Z,5.37
2018-12-30T23:08:00.466Z,5.55
2018-12-30T23:10:49.240Z,4.77
2018-12-30T23:13:37.851Z,5.28
2018-12-30T23:16:25.284Z,4.80
2018-12-30T23:19:13.385Z,5.23
2018-12-30T23:22:10.376Z,4.50
2018-12-30T23:24:57.709Z,4.33
2018-12-30T23:27:45.341Z,4.40
2018-12-30T23:30:33.316Z,4.60
2018-12-30T23:33:21.769Z,4.57
2018-12-30T23:36:08.095Z,4.27
2018-12-30T23:38:58.714Z,4.60
2018-12-30T23:41:56.481Z,6.35
2018-12-30T23:46:14.468Z,6.25
2018-12-30T23:49:04.278Z,6.10
2018-12-30T23:52:00.896Z,5.43
2018-12-30T23:54:43.953Z,5.10
2018-12-30T23:57:36.091Z,5.00
